createdAt,value
2023-02-07T00:00:52.899Z,20.23
2023-02-07T00:03:40.430Z,14.35
2023-02-07T00:06:29.808Z,20.90
2023-02-07T00:09:17.452Z,19.35
2023-02-07T00:12:05.225Z,24.75
2023-02-07T00:14:52.664Z,13.25
2023-02-07T00:17:41.736Z,16.75
2023-02-07T00:20:29.351Z,16.77
2023-02-07T00:23:17.345Z,16.42
2023-02-07T00:26:05.220Z,14.63
2023-02-07T00:28:54.438Z,19.33
2023-02-07T00:31:42.313Z,13.52
2023-02-07T00:34:32.180Z,14.65
2023-02-07T00:37:19.879Z,20.80
2023-02-07T00:40:07.871Z,18.88
2023-02-07T00:42:55.396Z,19.92
2023-02-07T00:45:42.800Z,16.45
2023-02-07T00:48:31.425Z,18.13
2023-02-07T00:51:20.467Z,16.45
2023-02-07T00:54:08.625Z,17.30
2023-02-07T00:56:56.014Z,16.25
2023-02-07T00:59:43.685Z,17.23
2023-02-07T01:02:31.166Z,19.52
2023-02-07T01:05:18.905Z,13.40
2023-02-07T01:08:10.944Z,14.45
2023-02-07T01:11:05.373Z,18.13
2023-02-07T01:13:55.765Z,14.85
2023-02-07T01:16:46.170Z,11.90
2023-02-07T01:19:36.424Z,16.10
2023-02-07T01:22:27.125Z,10.15
2023-02-07T01:25:18.218Z,11.70
2023-02-07T01:28:07.856Z,10.77
2023-02-07T01:30:57.600Z,11.07
2023-02-07T01:33:47.428Z,9.73
2023-02-07T01:36:37.686Z,14.10
2023-02-07T01:39:27.931Z,13.27
2023-02-07T01:42:21.300Z,8.85
2023-02-07T01:45:26.648Z,14.35
2023-02-07T01:48:22.501Z,10.50
2023-02-07T01:51:13.026Z,12.95
2023-02-07T01:54:07.253Z,11.68
2023-02-07T01:56:58.257Z,12.40
2023-02-07T01:59:48.589Z,13.25
2023-02-07T02:02:37.481Z,13.02
2023-02-07T02:05:26.022Z,14.00
2023-02-07T02:08:13.651Z,10.30
2023-02-07T02:11:12.760Z,12.05
2023-02-07T02:14:04.854Z,9.75
2023-02-07T02:16:59.016Z,12.05
2023-02-07T02:20:19.156Z,9.25
2023-02-07T02:23:16.189Z,9.07
2023-02-07T02:26:34.377Z,12.15
2023-02-07T02:29:30.540Z,10.55
2023-02-07T02:32:49.597Z,14.40
2023-02-07T02:35:45.034Z,11.52
2023-02-07T02:38:36.215Z,9.30
2023-02-07T02:41:28.779Z,7.05
2023-02-07T02:44:23.607Z,11.02
2023-02-07T02:47:12.193Z,6.68
2023-02-07T02:50:01.386Z,8.35
2023-02-07T02:52:51.177Z,8.10
2023-02-07T02:55:57.601Z,12.70
2023-02-07T02:58:53.711Z,10.63
2023-02-07T03:01:53.362Z,8.15
2023-02-07T03:04:56.732Z,10.68
2023-02-07T03:07:58.762Z,6.95
2023-02-07T03:10:49.156Z,9.05
2023-02-07T03:13:44.446Z,10.00
2023-02-07T03:16:36.317Z,9.38
2023-02-07T03:19:28.115Z,6.55
2023-02-07T03:22:19.730Z,8.70
2023-02-07T03:25:11.189Z,6.25
2023-02-07T03:27:59.127Z,7.85
2023-02-07T03:30:50.482Z,9.82
2023-02-07T03:33:39.357Z,7.95
2023-02-07T03:36:31.073Z,8.52
2023-02-07T03:39:18.765Z,6.18
2023-02-07T03:42:11.559Z,5.95
2023-02-07T03:45:00.527Z,9.82
2023-02-07T03:47:48.340Z,6.93
2023-02-07T03:50:35.720Z,9.35
2023-02-07T03:53:23.177Z,8.68
2023-02-07T03:56:10.632Z,8.98
2023-02-07T03:58:59.874Z,8.82
2023-02-07T04:01:47.286Z,8.30
2023-02-07T04:04:34.712Z,12.85
2023-02-07T04:07:22.263Z,11.25
2023-02-07T04:10:12.833Z,10.43
2023-02-07T04:13:00.351Z,8.10
2023-02-07T04:15:49.463Z,12.73
2023-02-07T04:18:37.147Z,13.35
2023-02-07T04:21:25.289Z,12.70
2023-02-07T04:24:12.988Z,11.52
2023-02-07T04:27:00.872Z,10.40
2023-02-07T04:29:48.693Z,12.38
2023-02-07T04:32:37.428Z,13.00
2023-02-07T04:35:25.125Z,10.23
2023-02-07T04:38:12.620Z,10.00
2023-02-07T04:41:00.875Z,8.60
2023-02-07T04:43:48.476Z,9.88
2023-02-07T04:46:36.065Z,8.88
2023-02-07T04:49:25.002Z,8.77
2023-02-07T04:52:11.987Z,8.93
2023-02-07T04:54:59.543Z,5.97
2023-02-07T04:57:47.219Z,9.15
2023-02-07T05:00:35.391Z,9.88
2023-02-07T05:03:22.962Z,7.88
2023-02-07T05:06:13.155Z,6.93
2023-02-07T05:09:00.541Z,11.45
2023-02-07T05:11:48.026Z,7.85
2023-02-07T05:14:35.630Z,9.43
2023-02-07T05:17:23.202Z,6.82
2023-02-07T05:20:11.697Z,10.10
2023-02-07T05:23:00.649Z,11.30
2023-02-07T05:25:49.120Z,11.98
2023-02-07T05:28:36.146Z,12.98
2023-02-07T05:31:43.601Z,7.93
2023-02-07T05:34:30.379Z,9.27
2023-02-07T05:37:17.887Z,8.32
2023-02-07T05:40:07.577Z,6.07
2023-02-07T05:42:56.335Z,5.90
2023-02-07T05:45:45.739Z,7.30
2023-02-07T05:48:33.181Z,6.28
2023-02-07T05:51:20.890Z,4.75
2023-02-07T05:54:08.470Z,5.90
2023-02-07T05:56:57.765Z,5.20
2023-02-07T05:59:45.237Z,6.40
2023-02-07T06:02:48.835Z,7.30
2023-02-07T06:05:36.438Z,8.70
2023-02-07T06:08:24.175Z,8.90
2023-02-07T06:11:11.721Z,4.32
2023-02-07T06:14:00.823Z,5.43
2023-02-07T06:16:49.271Z,5.80
2023-02-07T06:19:36.925Z,7.85
2023-02-07T06:22:24.540Z,7.50
2023-02-07T06:25:12.579Z,9.98
2023-02-07T06:28:00.835Z,5.45
2023-02-07T06:30:51.989Z,5.82
2023-02-07T06:33:39.492Z,6.32
2023-02-07T06:36:27.119Z,7.07
2023-02-07T06:39:14.603Z,6.30
2023-02-07T06:42:02.160Z,8.25
2023-02-07T06:44:49.897Z,6.28
2023-02-07T06:47:38.974Z,6.50
2023-02-07T06:50:26.620Z,8.35
2023-02-07T06:53:14.087Z,6.03
2023-02-07T06:56:01.891Z,6.18
2023-02-07T06:58:49.516Z,8.65
2023-02-07T07:01:37.113Z,5.63
2023-02-07T07:04:25.851Z,4.38
2023-02-07T07:07:13.942Z,5.82
2023-02-07T07:10:01.446Z,8.27
2023-02-07T07:12:49.165Z,9.07
2023-02-07T07:15:36.751Z,10.50
2023-02-07T07:18:24.351Z,9.30
2023-02-07T07:21:13.792Z,10.50
2023-02-07T07:24:01.372Z,9.80
2023-02-07T07:26:51.816Z,6.28
2023-02-07T07:29:39.452Z,10.93
2023-02-07T07:32:34.018Z,5.78
2023-02-07T07:35:21.992Z,4.65
2023-02-07T07:38:13.335Z,8.98
2023-02-07T07:41:01.768Z,8.98
2023-02-07T07:43:49.334Z,7.88
2023-02-07T07:46:36.823Z,7.20
2023-02-07T07:49:24.596Z,7.90
2023-02-07T07:52:12.315Z,12.10
2023-02-07T07:55:01.488Z,12.85
2023-02-07T07:57:49.139Z,6.95
2023-02-07T08:00:36.785Z,9.48
2023-02-07T08:03:24.736Z,8.52
2023-02-07T08:06:12.327Z,7.95
2023-02-07T08:09:00.393Z,8.18
2023-02-07T08:11:49.987Z,7.60
2023-02-07T08:14:37.267Z,6.95
2023-02-07T08:17:24.723Z,6.18
2023-02-07T08:20:13.202Z,7.90
2023-02-07T08:23:00.742Z,7.53
2023-02-07T08:25:49.912Z,8.05
2023-02-07T08:28:40.919Z,8.95
2023-02-07T08:31:28.842Z,6.68
2023-02-07T08:34:16.376Z,11.00
2023-02-07T08:37:05.447Z,10.05
2023-02-07T08:39:53.164Z,6.25
2023-02-07T08:42:41.002Z,8.73
2023-02-07T08:45:29.933Z,12.00
2023-02-07T08:48:17.746Z,7.32
2023-02-07T08:51:07.150Z,8.45
2023-02-07T08:53:54.938Z,9.52
2023-02-07T08:56:42.415Z,10.10
2023-02-07T08:59:30.043Z,8.48
2023-02-07T09:02:20.045Z,10.43
2023-02-07T09:05:08.846Z,8.13
2023-02-07T09:07:56.311Z,7.53
2023-02-07T09:10:46.032Z,8.68
2023-02-07T09:13:34.856Z,9.15
2023-02-07T09:16:24.573Z,12.48
2023-02-07T09:19:13.424Z,8.55
2023-02-07T09:22:00.696Z,9.57
2023-02-07T09:24:49.244Z,8.32
2023-02-07T09:27:37.101Z,9.68
2023-02-07T09:30:24.823Z,7.18
2023-02-07T09:33:13.667Z,7.47
2023-02-07T09:36:02.408Z,10.30
2023-02-07T09:38:50.119Z,7.35
2023-02-07T09:41:43.070Z,10.32
2023-02-07T09:44:42.657Z,8.27
2023-02-07T09:47:31.150Z,7.53
2023-02-07T09:50:24.047Z,10.25
2023-02-07T09:53:17.209Z,8.95
2023-02-07T09:56:06.181Z,9.60
2023-02-07T09:58:56.303Z,9.73
2023-02-07T10:01:48.064Z,8.95
2023-02-07T10:04:39.347Z,10.27
2023-02-07T10:07:27.472Z,9.63
2023-02-07T10:10:23.585Z,8.23
2023-02-07T10:13:34.272Z,9.43
2023-02-07T10:16:44.237Z,10.80
2023-02-07T10:19:43.945Z,8.75
2023-02-07T10:22:37.378Z,9.07
2023-02-07T10:25:37.492Z,8.55
2023-02-07T10:28:49.081Z,12.48
2023-02-07T10:31:39.804Z,8.50
2023-02-07T10:34:32.011Z,8.40
2023-02-07T10:37:22.167Z,9.23
2023-02-07T10:40:16.901Z,7.45
2023-02-07T10:43:11.730Z,8.35
2023-02-07T10:46:06.261Z,7.45
2023-02-07T10:48:54.713Z,7.53
2023-02-07T10:51:45.972Z,7.60
2023-02-07T10:54:51.625Z,7.15
2023-02-07T10:57:42.099Z,6.40
2023-02-07T11:00:34.656Z,6.95
2023-02-07T11:03:24.710Z,7.20
2023-02-07T11:06:15.453Z,10.13
2023-02-07T11:09:13.797Z,6.47
2023-02-07T11:12:02.067Z,8.75
2023-02-07T11:15:02.594Z,7.45
2023-02-07T11:17:52.544Z,8.05
2023-02-07T11:20:42.281Z,8.95
2023-02-07T11:23:29.864Z,8.70
2023-02-07T11:26:18.916Z,6.00
2023-02-07T11:29:14.928Z,6.75
2023-02-07T11:32:03.596Z,10.15
2023-02-07T11:34:54.547Z,8.05
2023-02-07T11:37:48.837Z,5.60
2023-02-07T11:43:26.245Z,8.13
2023-02-07T11:46:14.210Z,7.28
2023-02-07T11:49:01.884Z,6.97
2023-02-07T11:51:53.328Z,7.53
2023-02-07T11:54:41.849Z,7.50
2023-02-07T11:57:32.681Z,6.43
2023-02-07T12:00:23.710Z,5.38
2023-02-07T12:03:26.466Z,8.32
2023-02-07T12:06:16.872Z,7.65
2023-02-07T12:09:08.454Z,5.85
2023-02-07T12:11:58.789Z,7.65
2023-02-07T12:14:51.653Z,7.13
2023-02-07T12:17:42.527Z,6.38
2023-02-07T12:20:34.178Z,7.55
2023-02-07T12:23:42.322Z,6.53
2023-02-07T12:26:36.142Z,7.13
2023-02-07T12:29:33.907Z,5.83
2023-02-07T12:32:31.358Z,6.50
2023-02-07T12:35:22.488Z,7.03
2023-02-07T12:38:13.638Z,8.00
2023-02-07T12:41:03.825Z,7.97
2023-02-07T12:43:59.634Z,6.95
2023-02-07T12:46:52.901Z,7.80
2023-02-07T12:49:49.206Z,6.50
2023-02-07T12:52:40.929Z,5.47
2023-02-07T12:55:34.600Z,8.77
2023-02-07T12:58:33.219Z,10.35
2023-02-07T13:01:25.502Z,6.53
2023-02-07T13:04:21.995Z,9.70
2023-02-07T13:07:16.696Z,7.57
2023-02-07T13:10:08.667Z,7.55
2023-02-07T13:12:58.858Z,8.57
2023-02-07T13:15:48.819Z,7.05
2023-02-07T13:18:42.234Z,7.60
2023-02-07T13:21:33.142Z,5.18
2023-02-07T13:24:21.855Z,7.47
2023-02-07T13:27:12.538Z,10.23
2023-02-07T13:30:00.876Z,7.75
2023-02-07T13:32:48.858Z,6.93
2023-02-07T13:35:39.350Z,6.30
2023-02-07T13:38:35.571Z,5.57
2023-02-07T13:41:29.989Z,5.30
2023-02-07T13:44:20.895Z,6.05
2023-02-07T13:47:19.326Z,5.82
2023-02-07T13:50:13.895Z,5.15
2023-02-07T13:53:06.939Z,7.53
2023-02-07T13:55:54.084Z,6.43
2023-02-07T13:59:11.445Z,5.70
2023-02-07T14:02:00.665Z,7.00
2023-02-07T14:04:49.472Z,7.40
2023-02-07T14:07:38.271Z,5.93
2023-02-07T14:10:42.435Z,6.20
2023-02-07T14:13:31.778Z,4.68
2023-02-07T14:16:38.616Z,6.13
2023-02-07T14:19:49.279Z,6.03
2023-02-07T14:23:04.684Z,5.88
2023-02-07T14:25:54.644Z,6.80
2023-02-07T14:28:43.419Z,5.88
2023-02-07T14:31:31.228Z,6.97
2023-02-07T14:34:20.865Z,7.10
2023-02-07T14:37:22.451Z,6.35
2023-02-07T14:40:18.951Z,7.28
2023-02-07T14:43:16.180Z,5.72
2023-02-07T14:46:05.694Z,6.63
2023-02-07T14:48:54.862Z,7.68
2023-02-07T14:51:44.138Z,6.95
2023-02-07T14:54:36.952Z,6.75
2023-02-07T14:57:33.724Z,8.02
2023-02-07T15:00:28.983Z,7.32
2023-02-07T15:03:20.501Z,6.28
2023-02-07T15:06:23.790Z,6.03
2023-02-07T15:09:22.740Z,5.35
2023-02-07T15:12:18.869Z,7.03
2023-02-07T15:15:19.285Z,5.20
2023-02-07T15:18:14.604Z,5.72
2023-02-07T15:21:02.518Z,5.85
2023-02-07T15:23:50.898Z,4.63
2023-02-07T15:26:37.954Z,4.93
2023-02-07T15:29:26.481Z,6.80
2023-02-07T15:32:21.706Z,7.90
2023-02-07T15:35:17.931Z,5.90
2023-02-07T15:38:15.535Z,4.97
2023-02-07T15:41:04.673Z,7.03
2023-02-07T15:43:57.511Z,5.20
2023-02-07T15:46:46.150Z,6.45
2023-02-07T15:49:34.125Z,4.35
2023-02-07T15:52:26.086Z,5.32
2023-02-07T15:55:18.535Z,6.53
2023-02-07T15:58:06.488Z,6.65
2023-02-07T16:00:53.967Z,5.50
2023-02-07T16:03:43.383Z,5.75
2023-02-07T16:06:32.707Z,5.95
2023-02-07T16:09:37.490Z,8.10
2023-02-07T16:12:42.811Z,6.25
2023-02-07T16:15:33.326Z,6.82
2023-02-07T16:18:37.007Z,8.10
2023-02-07T16:21:27.804Z,8.52
2023-02-07T16:24:18.223Z,5.00
2023-02-07T16:27:08.246Z,5.85
2023-02-07T16:29:56.466Z,5.85
2023-02-07T16:32:44.285Z,8.57
2023-02-07T16:35:31.691Z,12.73
2023-02-07T16:38:19.223Z,9.65
2023-02-07T16:41:06.851Z,11.27
2023-02-07T16:43:56.348Z,21.48
2023-02-07T16:46:43.912Z,31.05
2023-02-07T16:49:31.911Z,18.38
2023-02-07T16:52:19.116Z,10.73
2023-02-07T16:55:07.275Z,17.48
2023-02-07T16:57:55.560Z,9.82
2023-02-07T17:00:44.642Z,10.60
2023-02-07T17:03:31.890Z,10.52
2023-02-07T17:06:21.679Z,9.57
2023-02-07T17:09:15.874Z,7.38
2023-02-07T17:12:03.281Z,8.07
2023-02-07T17:14:50.565Z,6.20
2023-02-07T17:17:39.663Z,6.90
2023-02-07T17:20:28.699Z,7.00
2023-02-07T17:23:16.480Z,9.27
2023-02-07T17:26:04.314Z,7.45
2023-02-07T17:28:51.928Z,8.82
2023-02-07T17:31:39.369Z,9.52
2023-02-07T17:34:29.312Z,9.05
2023-02-07T17:37:17.474Z,10.85
2023-02-07T17:40:05.335Z,10.10
2023-02-07T17:42:52.586Z,13.13
2023-02-07T17:45:40.266Z,13.27
2023-02-07T17:48:30.326Z,16.90
2023-02-07T17:51:21.595Z,14.05
2023-02-07T17:54:09.287Z,13.38
2023-02-07T17:56:56.956Z,9.68
2023-02-07T17:59:44.619Z,14.30
2023-02-07T18:02:33.432Z,11.75
2023-02-07T18:05:21.393Z,11.68
2023-02-07T18:08:12.339Z,13.63
2023-02-07T18:11:04.231Z,14.90
2023-02-07T18:13:51.468Z,19.08
2023-02-07T18:16:39.012Z,15.88
2023-02-07T18:19:26.352Z,13.18
2023-02-07T18:22:14.001Z,12.43
2023-02-07T18:25:02.909Z,12.77
2023-02-07T18:27:51.541Z,12.80
2023-02-07T18:30:40.558Z,12.00
2023-02-07T18:33:28.639Z,10.73
2023-02-07T18:36:16.822Z,12.18
2023-02-07T18:39:04.265Z,13.70
2023-02-07T18:41:53.277Z,16.20
2023-02-07T18:44:40.890Z,11.95
2023-02-07T18:47:28.150Z,14.98
2023-02-07T18:50:15.563Z,12.45
2023-02-07T18:53:05.430Z,10.32
2023-02-07T18:55:52.947Z,12.80
2023-02-07T18:58:42.498Z,11.15
2023-02-07T19:01:31.580Z,6.88
2023-02-07T19:04:19.203Z,11.88
2023-02-07T19:07:06.747Z,9.32
2023-02-07T19:09:53.964Z,10.82
2023-02-07T19:12:41.516Z,10.20
2023-02-07T19:15:30.381Z,11.95
2023-02-07T19:18:17.950Z,9.63
2023-02-07T19:21:05.948Z,8.65
2023-02-07T19:23:53.931Z,11.93
2023-02-07T19:26:41.470Z,12.38
2023-02-07T19:29:30.647Z,10.02
2023-02-07T19:32:19.763Z,9.13
2023-02-07T19:35:07.704Z,12.77
2023-02-07T19:37:55.108Z,9.80
2023-02-07T19:40:42.648Z,15.98
2023-02-07T19:43:30.219Z,10.18
2023-02-07T19:46:18.885Z,10.52
2023-02-07T19:49:08.010Z,11.82
2023-02-07T19:51:55.427Z,9.77
2023-02-07T19:54:43.070Z,8.95
2023-02-07T19:57:33.459Z,9.82
2023-02-07T20:00:20.911Z,10.45
2023-02-07T20:03:08.492Z,11.80
2023-02-07T20:06:00.888Z,15.13
2023-02-07T20:08:49.412Z,11.95
2023-02-07T20:11:37.260Z,16.95
2023-02-07T20:14:24.691Z,16.10
2023-02-07T20:17:12.291Z,18.25
2023-02-07T20:19:59.522Z,21.80
2023-02-07T20:22:48.156Z,23.55
2023-02-07T20:25:36.201Z,18.02
2023-02-07T20:28:24.683Z,16.38
2023-02-07T20:31:14.879Z,19.45
2023-02-07T20:34:03.572Z,15.55
2023-02-07T20:36:51.054Z,18.63
2023-02-07T20:39:39.820Z,18.88
2023-02-07T20:42:27.157Z,15.57
2023-02-07T20:45:14.484Z,15.20
2023-02-07T20:48:02.248Z,11.80
2023-02-07T20:50:57.855Z,14.13
2023-02-07T20:53:45.511Z,12.57
2023-02-07T20:56:34.935Z,14.70
2023-02-07T20:59:26.411Z,15.48
2023-02-07T21:02:13.826Z,9.63
2023-02-07T21:05:01.232Z,11.93
2023-02-07T21:07:48.885Z,9.55
2023-02-07T21:10:36.302Z,12.18
2023-02-07T21:13:25.633Z,12.18
2023-02-07T21:16:13.151Z,8.80
2023-02-07T21:19:01.439Z,9.45
2023-02-07T21:21:50.937Z,11.25
2023-02-07T21:24:38.556Z,8.30
2023-02-07T21:27:26.020Z,11.25
2023-02-07T21:30:15.254Z,7.60
2023-02-07T21:33:03.092Z,10.15
2023-02-07T21:35:50.465Z,11.80
2023-02-07T21:38:38.281Z,10.38
2023-02-07T21:41:27.307Z,12.75
2023-02-07T21:44:15.153Z,12.93
2023-02-07T21:47:03.631Z,9.48
2023-02-07T21:49:51.195Z,8.80
2023-02-07T21:52:39.802Z,9.73
2023-02-07T21:55:27.460Z,13.88
2023-02-07T21:58:15.363Z,13.60
2023-02-07T22:01:07.905Z,11.63
2023-02-07T22:03:58.906Z,13.10
2023-02-07T22:06:49.132Z,13.73
2023-02-07T22:09:36.316Z,12.07
2023-02-07T22:12:23.985Z,8.30
2023-02-07T22:15:11.513Z,11.82
2023-02-07T22:17:59.062Z,11.07
2023-02-07T22:20:48.247Z,10.57
2023-02-07T22:23:36.628Z,11.57
2023-02-07T22:26:24.540Z,12.95
2023-02-07T22:29:12.424Z,9.93
2023-02-07T22:31:59.768Z,11.35
2023-02-07T22:34:47.336Z,12.63
2023-02-07T22:37:36.364Z,12.98
2023-02-07T22:40:23.752Z,9.55
2023-02-07T22:43:13.048Z,9.75
2023-02-07T22:46:03.907Z,10.23
2023-02-07T22:48:53.405Z,13.43
2023-02-07T22:51:40.904Z,10.65
2023-02-07T22:54:29.793Z,9.10
2023-02-07T22:57:17.137Z,12.15
2023-02-07T23:00:06.615Z,7.25
2023-02-07T23:02:54.023Z,9.55
2023-02-07T23:05:41.552Z,9.27
2023-02-07T23:08:29.016Z,9.43
2023-02-07T23:11:19.515Z,7.22
2023-02-07T23:14:08.059Z,10.00
2023-02-07T23:16:55.448Z,8.80
2023-02-07T23:19:42.890Z,11.82
2023-02-07T23:22:30.382Z,8.98
2023-02-07T23:25:18.017Z,11.00
2023-02-07T23:28:07.136Z,11.35
2023-02-07T23:30:54.666Z,12.57
2023-02-07T23:33:42.150Z,7.20
2023-02-07T23:36:29.848Z,12.00
2023-02-07T23:39:17.798Z,11.63
2023-02-07T23:42:10.359Z,13.30
2023-02-07T23:44:58.987Z,13.43
2023-02-07T23:47:46.527Z,12.57
2023-02-07T23:50:34.111Z,11.73
2023-02-07T23:53:22.453Z,11.05
2023-02-07T23:56:12.223Z,13.38
2023-02-07T23:58:59.577Z,10.85
